Time;durP1;ratioP1;P1;durP2;ratioP2;P2;SDS_P1;SDS_P2;PMS_P1;PMS_P2;Temp;Humidity;BMP_temperature;BMP_pressure;BME280_temperature;BME280_humidity;BME280_pressure;Samples;Min_cycle;Max_cycle;Signal;HPM_P1;HPM_P2
2023/06/23 00:01:31;;;;;;;;;;;20.70;99.90;;;;;;5022697;28;20252;-73
2023/06/23 00:03:59;;;;;;;;;;;20.70;99.90;;;;;;5023647;28;19936;-73
2023/06/23 00:06:25;;;;;;;;;;;20.60;99.90;;;;;;5023424;28;19929;-73
2023/06/23 00:08:52;;;;;;;;;;;20.60;99.90;;;;;;5023599;28;19922;-73
2023/06/23 00:11:19;;;;;;;;;;;20.60;99.90;;;;;;5022977;28;19959;-73
2023/06/23 00:13:47;;;;;;;;;;;20.50;99.90;;;;;;5023673;28;20205;-73
2023/06/23 00:16:14;;;;;;;;;;;20.50;99.90;;;;;;5042561;28;19927;-74
2023/06/23 00:18:41;;;;;;;;;;;20.50;99.90;;;;;;5043200;28;19988;-73
2023/06/23 00:21:08;;;;;;;;;;;20.40;99.90;;;;;;5042685;28;20005;-73
2023/06/23 00:23:37;;;;;;;;;;;20.40;99.90;;;;;;5042445;28;20124;-73
2023/06/23 00:26:04;;;;;;;;;;;20.40;99.90;;;;;;5042703;28;19921;-73
2023/06/23 00:28:31;;;;;;;;;;;20.40;99.90;;;;;;5041050;28;19925;-73
2023/06/23 00:30:59;;;;;;;;;;;20.40;99.90;;;;;;5022574;28;20243;-73
2023/06/23 00:33:26;;;;;;;;;;;20.40;99.90;;;;;;5022986;28;19989;-73
2023/06/23 00:35:52;;;;;;;;;;;20.50;99.90;;;;;;5022950;28;19964;-73
2023/06/23 00:38:20;;;;;;;;;;;20.40;99.90;;;;;;5022687;28;19930;-73
2023/06/23 00:40:46;;;;;;;;;;;20.40;99.90;;;;;;5026253;28;19925;-74
2023/06/23 00:43:13;;;;;;;;;;;20.40;99.90;;;;;;5026586;28;20227;-74
2023/06/23 00:45:53;;;;;;;;;;;20.30;99.90;;;;;;5024355;28;19953;-73
2023/06/23 00:48:22;;;;;;;;;;;20.30;99.90;;;;;;5026775;28;20027;-73
2023/06/23 00:50:49;;;;;;;;;;;20.20;99.90;;;;;;5026039;28;19921;-73
2023/06/23 00:53:25;;;;;;;;;;;20.20;99.90;;;;;;5034297;28;20166;-73
2023/06/23 00:55:51;;;;;;;;;;;20.20;99.90;;;;;;5046057;28;19928;-73
2023/06/23 00:58:18;;;;;;;;;;;20.20;99.90;;;;;;5045965;28;19929;-73
2023/06/23 01:00:45;;;;;;;;;;;20.10;99.90;;;;;;5045659;28;19992;-74
2023/06/23 01:03:12;;;;;;;;;;;20.10;99.90;;;;;;5046511;28;19957;-73
2023/06/23 01:05:41;;;;;;;;;;;20.00;99.90;;;;;;5045808;28;20268;-74
2023/06/23 01:08:14;;;;;;;;;;;20.00;99.90;;;;;;5045813;28;19952;-73
2023/06/23 01:10:42;;;;;;;;;;;20.00;99.90;;;;;;5045262;28;19936;-74
2023/06/23 01:13:14;;;;;;;;;;;20.00;99.90;;;;;;5045790;28;20340;-74
2023/06/23 01:15:43;;;;;;;;;;;20.00;99.90;;;;;;5045721;28;20226;-73
2023/06/23 01:18:13;;;;;;;;;;;20.00;99.90;;;;;;5046002;28;20167;-73
2023/06/23 01:20:43;;;;;;;;;;;20.00;99.90;;;;;;5045454;28;19936;-73
2023/06/23 01:23:17;;;;;;;;;;;20.00;99.90;;;;;;5045865;28;19992;-74
2023/06/23 01:25:49;;;;;;;;;;;20.10;99.90;;;;;;5045850;28;19921;-73
2023/06/23 01:31:13;;;;;;;;;;;20.00;99.90;;;;;;5121196;27;19935;-73
2023/06/23 01:33:43;;;;;;;;;;;19.90;99.90;;;;;;5121541;28;19991;-73
2023/06/23 01:36:12;;;;;;;;;;;20.00;99.90;;;;;;5121665;28;20140;-74
2023/06/23 01:38:41;;;;;;;;;;;19.90;99.90;;;;;;5121756;28;19961;-73
2023/06/23 01:41:09;;;;;;;;;;;19.90;99.90;;;;;;5120867;28;20254;-74
2023/06/23 01:43:37;;;;;;;;;;;19.90;99.90;;;;;;5121644;28;19920;-73
2023/06/23 01:46:09;;;;;;;;;;;19.90;99.90;;;;;;5118858;28;19927;-72
2023/06/23 01:48:39;;;;;;;;;;;19.80;99.90;;;;;;5121399;28;20172;-73
2023/06/23 01:51:19;;;;;;;;;;;19.80;99.90;;;;;;5119560;28;19927;-73
2023/06/23 01:53:46;;;;;;;;;;;19.80;99.90;;;;;;5116911;28;19920;-73
2023/06/23 01:56:14;;;;;;;;;;;19.80;99.90;;;;;;5100673;28;19951;-73
2023/06/23 01:58:41;;;;;;;;;;;19.80;99.90;;;;;;5106515;28;19927;-73
2023/06/23 02:01:09;;;;;;;;;;;19.80;99.90;;;;;;5120662;28;19920;-73
2023/06/23 02:03:38;;;;;;;;;;;19.80;99.90;;;;;;5121180;28;19920;-73
2023/06/23 02:06:06;;;;;;;;;;;19.70;99.90;;;;;;5117933;28;19984;-73
2023/06/23 02:08:33;;;;;;;;;;;19.70;99.90;;;;;;5121103;28;19987;-72
2023/06/23 02:11:00;;;;;;;;;;;19.60;99.90;;;;;;5120394;28;20023;-73
2023/06/23 02:13:27;;;;;;;;;;;19.60;99.90;;;;;;5120646;28;19920;-73
2023/06/23 02:15:54;;;;;;;;;;;19.60;99.90;;;;;;5120776;28;19988;-73
2023/06/23 02:18:21;;;;;;;;;;;19.60;99.90;;;;;;5120743;28;19920;-73
2023/06/23 02:20:51;;;;;;;;;;;19.50;99.90;;;;;;5120147;28;19920;-73
2023/06/23 02:23:18;;;;;;;;;;;19.50;99.90;;;;;;5120825;28;19987;-72
2023/06/23 02:25:45;;;;;;;;;;;19.50;99.90;;;;;;5120586;28;19946;-72
2023/06/23 02:28:12;;;;;;;;;;;19.50;99.90;;;;;;5120225;28;19952;-72
2023/06/23 02:30:39;;;;;;;;;;;19.50;99.90;;;;;;5136339;28;19920;-72
2023/06/23 02:33:06;;;;;;;;;;;19.50;99.90;;;;;;5141054;28;19926;-73
2023/06/23 02:35:33;;;;;;;;;;;19.50;99.90;;;;;;5141000;28;19926;-73
2023/06/23 02:38:03;;;;;;;;;;;19.50;99.90;;;;;;5140695;28;19987;-73
2023/06/23 02:40:31;;;;;;;;;;;19.50;99.90;;;;;;5137950;28;19927;-73
2023/06/23 02:43:01;;;;;;;;;;;19.50;99.90;;;;;;5127023;28;19926;-73
2023/06/23 02:45:29;;;;;;;;;;;19.50;99.90;;;;;;5127153;28;19928;-73
2023/06/23 02:47:57;;;;;;;;;;;19.40;99.90;;;;;;5126902;28;19986;-72
2023/06/23 02:50:25;;;;;;;;;;;19.40;99.90;;;;;;5126442;28;19995;-73
2023/06/23 02:53:05;;;;;;;;;;;19.30;99.90;;;;;;5125374;28;19983;-72
2023/06/23 02:55:35;;;;;;;;;;;19.20;99.90;;;;;;5126905;28;19990;-73
2023/06/23 02:58:03;;;;;;;;;;;19.00;99.90;;;;;;5126526;28;19930;-72
2023/06/23 03:00:30;;;;;;;;;;;19.00;99.90;;;;;;5126043;28;19927;-72
2023/06/23 03:02:59;;;;;;;;;;;19.00;99.90;;;;;;5126890;28;19987;-73
2023/06/23 03:05:26;;;;;;;;;;;18.90;99.90;;;;;;5126551;28;19942;-72
2023/06/23 03:07:53;;;;;;;;;;;18.90;99.90;;;;;;5126888;28;19965;-74
2023/06/23 03:10:21;;;;;;;;;;;18.90;99.90;;;;;;5126305;28;20175;-73
2023/06/23 03:12:48;;;;;;;;;;;18.80;99.90;;;;;;5126312;28;19926;-73
2023/06/23 03:15:15;;;;;;;;;;;18.80;99.90;;;;;;5126492;28;19920;-72
2023/06/23 03:17:42;;;;;;;;;;;18.80;99.90;;;;;;5126389;28;19926;-74
2023/06/23 03:20:11;;;;;;;;;;;18.70;99.90;;;;;;5126151;28;19920;-73
2023/06/23 03:22:40;;;;;;;;;;;18.70;99.90;;;;;;5126073;28;19970;-72
2023/06/23 03:25:10;;;;;;;;;;;18.70;99.90;;;;;;5125951;28;20229;-73
2023/06/23 03:27:38;;;;;;;;;;;18.70;99.90;;;;;;5126318;28;19987;-72
2023/06/23 03:30:07;;;;;;;;;;;18.70;99.90;;;;;;5125423;28;20191;-72
2023/06/23 03:32:37;;;;;;;;;;;18.60;99.90;;;;;;5126119;28;19958;-73
2023/06/23 03:35:05;;;;;;;;;;;18.60;99.90;;;;;;5126068;27;19919;-72
2023/06/23 03:37:32;;;;;;;;;;;18.60;99.90;;;;;;5125886;28;19999;-72
2023/06/23 03:40:01;;;;;;;;;;;18.60;99.90;;;;;;5125786;28;19928;-73
2023/06/23 03:42:28;;;;;;;;;;;18.60;99.90;;;;;;5116507;28;20208;-72
2023/06/23 03:45:00;;;;;;;;;;;18.60;99.90;;;;;;5125746;28;19987;-73
2023/06/23 03:47:28;;;;;;;;;;;18.60;99.90;;;;;;5117282;28;20220;-73
2023/06/23 03:49:56;;;;;;;;;;;18.60;99.90;;;;;;5107875;28;20212;-73
2023/06/23 03:52:27;;;;;;;;;;;18.60;99.90;;;;;;5103692;28;19926;-72
2023/06/23 03:54:55;;;;;;;;;;;18.60;99.90;;;;;;5121485;28;19920;-73
2023/06/23 03:57:25;;;;;;;;;;;18.50;99.90;;;;;;5125491;28;20190;-72
2023/06/23 03:59:52;;;;;;;;;;;18.40;99.90;;;;;;5125307;28;19919;-73
2023/06/23 04:02:21;;;;;;;;;;;18.40;99.90;;;;;;5125099;28;19941;-72
2023/06/23 04:04:48;;;;;;;;;;;18.30;99.90;;;;;;5125377;28;19920;-72
2023/06/23 04:07:15;;;;;;;;;;;18.30;99.90;;;;;;5108475;28;19926;-73
2023/06/23 04:09:43;;;;;;;;;;;18.20;99.90;;;;;;5125535;28;19985;-73
2023/06/23 04:12:11;;;;;;;;;;;18.20;99.90;;;;;;5124699;28;19987;-72
2023/06/23 04:14:39;;;;;;;;;;;18.20;99.90;;;;;;5125016;28;19920;-73
2023/06/23 04:17:07;;;;;;;;;;;18.10;99.90;;;;;;5124960;28;19920;-73
2023/06/23 04:19:35;;;;;;;;;;;18.10;99.90;;;;;;5125024;28;19920;-73
2023/06/23 04:22:03;;;;;;;;;;;18.10;99.90;;;;;;5124775;28;19982;-72
2023/06/23 04:24:31;;;;;;;;;;;18.10;99.90;;;;;;5125234;28;19983;-70
2023/06/23 04:26:58;;;;;;;;;;;18.10;99.90;;;;;;5124819;28;19919;-70
2023/06/23 04:29:26;;;;;;;;;;;18.10;99.90;;;;;;5116034;28;20238;-71
2023/06/23 04:31:54;;;;;;;;;;;18.10;99.90;;;;;;5104073;28;19934;-70
2023/06/23 04:34:28;;;;;;;;;;;18.10;99.90;;;;;;5101936;28;20212;-72
2023/06/23 04:36:59;;;;;;;;;;;18.10;99.90;;;;;;5104255;28;20142;-71
2023/06/23 04:39:32;;;;;;;;;;;18.10;99.90;;;;;;5104120;28;19920;-71
2023/06/23 04:42:01;;;;;;;;;;;18.10;99.90;;;;;;5104033;28;19951;-71
2023/06/23 04:44:29;;;;;;;;;;;18.10;99.90;;;;;;5104610;28;19920;-73
2023/06/23 04:46:58;;;;;;;;;;;18.00;99.90;;;;;;5104965;28;20006;-74
2023/06/23 04:49:27;;;;;;;;;;;18.00;99.90;;;;;;5104137;28;19927;-73
2023/06/23 04:51:57;;;;;;;;;;;18.00;99.90;;;;;;5103352;28;19988;-73
2023/06/23 04:54:30;;;;;;;;;;;18.00;99.90;;;;;;5119208;28;19965;-73
2023/06/23 04:57:01;;;;;;;;;;;18.00;99.90;;;;;;5104010;28;19920;-73
2023/06/23 04:59:31;;;;;;;;;;;17.90;99.90;;;;;;5116388;28;19950;-72
2023/06/23 05:01:58;;;;;;;;;;;17.90;99.90;;;;;;5124199;28;20223;-73
2023/06/23 05:04:25;;;;;;;;;;;18.00;99.90;;;;;;5124532;28;19942;-73
2023/06/23 05:06:53;;;;;;;;;;;17.90;99.90;;;;;;5124551;28;19958;-74
2023/06/23 05:09:22;;;;;;;;;;;17.90;99.90;;;;;;5124690;28;19987;-74
2023/06/23 05:11:51;;;;;;;;;;;18.00;99.90;;;;;;5124116;28;19959;-73
2023/06/23 05:14:19;;;;;;;;;;;18.00;99.90;;;;;;5124333;28;19965;-74
2023/06/23 05:16:48;;;;;;;;;;;18.00;99.90;;;;;;5124047;28;19984;-72
2023/06/23 05:19:15;;;;;;;;;;;18.00;99.90;;;;;;5123947;28;19920;-72
2023/06/23 05:21:44;;;;;;;;;;;18.10;99.90;;;;;;5123664;28;20227;-72
2023/06/23 05:24:11;;;;;;;;;;;18.10;99.90;;;;;;5124700;28;19920;-75
2023/06/23 05:26:41;;;;;;;;;;;18.00;99.90;;;;;;5124083;28;19920;-73
2023/06/23 05:29:09;;;;;;;;;;;18.10;99.90;;;;;;5124009;28;19920;-69
2023/06/23 05:31:37;;;;;;;;;;;18.00;99.90;;;;;;5123368;28;20207;-71
2023/06/23 05:34:06;;;;;;;;;;;18.10;99.90;;;;;;5124366;28;19927;-73
2023/06/23 05:36:33;;;;;;;;;;;18.20;99.90;;;;;;5118384;28;19920;-73
2023/06/23 05:39:00;;;;;;;;;;;18.30;99.90;;;;;;5124369;28;20119;-72
2023/06/23 05:41:27;;;;;;;;;;;18.20;99.90;;;;;;5123668;28;20115;-72
2023/06/23 05:43:55;;;;;;;;;;;18.20;99.90;;;;;;5124458;28;20201;-71
2023/06/23 05:46:24;;;;;;;;;;;18.20;99.90;;;;;;5124123;28;19919;-72
2023/06/23 05:48:52;;;;;;;;;;;18.20;99.90;;;;;;5123937;28;19951;-71
2023/06/23 05:54:11;;;;;;;;;;;18.20;99.90;;;;;;5106711;28;19924;-73
2023/06/23 05:56:41;;;;;;;;;;;18.20;99.90;;;;;;5116555;28;19995;-74
2023/06/23 05:59:13;;;;;;;;;;;18.30;99.90;;;;;;5113265;28;19919;-73
2023/06/23 06:01:41;;;;;;;;;;;18.30;99.90;;;;;;5118856;28;20123;-71
2023/06/23 06:04:14;;;;;;;;;;;18.30;99.90;;;;;;5125007;28;20148;-73
2023/06/23 06:06:41;;;;;;;;;;;18.20;99.90;;;;;;5124198;28;19920;-71
2023/06/23 06:09:10;;;;;;;;;;;18.10;99.90;;;;;;5124376;28;19952;-74
2023/06/23 06:11:38;;;;;;;;;;;18.10;99.90;;;;;;5123774;28;20116;-71
2023/06/23 06:14:07;;;;;;;;;;;18.10;99.90;;;;;;5124258;28;19920;-72
2023/06/23 06:16:36;;;;;;;;;;;18.10;99.90;;;;;;5125744;28;19979;-72
2023/06/23 06:19:03;;;;;;;;;;;18.10;99.90;;;;;;5128700;28;19926;-72
2023/06/23 06:21:32;;;;;;;;;;;18.10;99.90;;;;;;5127782;28;19962;-72
2023/06/23 06:23:59;;;;;;;;;;;18.10;99.90;;;;;;5127937;28;19958;-73
2023/06/23 06:26:26;;;;;;;;;;;18.00;99.90;;;;;;5127856;28;19926;-73
2023/06/23 06:28:54;;;;;;;;;;;18.00;99.90;;;;;;5129064;28;19983;-73
2023/06/23 06:31:21;;;;;;;;;;;17.90;99.90;;;;;;5111567;28;19927;-72
2023/06/23 06:33:49;;;;;;;;;;;17.90;99.90;;;;;;5107592;28;19920;-72
2023/06/23 06:36:20;;;;;;;;;;;17.80;99.90;;;;;;5106735;28;20267;-73
2023/06/23 06:38:49;;;;;;;;;;;17.80;99.90;;;;;;5107659;28;19951;-72
2023/06/23 06:41:16;;;;;;;;;;;17.80;99.90;;;;;;5107437;28;19979;-73
2023/06/23 06:43:44;;;;;;;;;;;17.80;99.90;;;;;;5125044;28;19982;-74
2023/06/23 06:46:11;;;;;;;;;;;17.80;99.90;;;;;;5129480;28;19926;-71
2023/06/23 06:48:46;;;;;;;;;;;17.70;99.90;;;;;;5130128;28;19973;-74
2023/06/23 06:51:15;;;;;;;;;;;17.70;99.90;;;;;;5125019;28;20153;-72
2023/06/23 06:56:22;;;;;;;;;;;17.70;99.90;;;;;;5106530;28;19985;-71
2023/06/23 06:58:49;;;;;;;;;;;17.60;99.90;;;;;;5123388;28;19920;-73
2023/06/23 07:01:16;;;;;;;;;;;17.60;99.90;;;;;;5126616;28;20266;-73
2023/06/23 07:03:43;;;;;;;;;;;17.60;99.90;;;;;;5127332;28;19952;-72
2023/06/23 07:06:19;;;;;;;;;;;17.70;99.90;;;;;;5127164;28;19998;-74
2023/06/23 07:09:08;;;;;;;;;;;17.70;99.90;;;;;;5127489;28;19958;-76
2023/06/23 07:11:36;;;;;;;;;;;17.70;99.90;;;;;;5124338;28;19931;-73
2023/06/23 07:14:04;;;;;;;;;;;17.80;99.90;;;;;;5126758;28;19922;-72
2023/06/23 07:16:33;;;;;;;;;;;17.80;99.90;;;;;;5127234;28;20199;-72
2023/06/23 07:21:46;;;;;;;;;;;17.80;99.90;;;;;;5104840;28;19920;-72
2023/06/23 07:24:13;;;;;;;;;;;17.70;99.90;;;;;;5106258;28;19999;-72
2023/06/23 07:26:41;;;;;;;;;;;17.70;99.90;;;;;;5105766;28;20241;-73
2023/06/23 07:29:08;;;;;;;;;;;17.70;99.90;;;;;;5105832;28;19986;-72
2023/06/23 07:31:37;;;;;;;;;;;17.80;99.90;;;;;;5105203;28;19963;-73
2023/06/23 07:34:03;;;;;;;;;;;17.80;99.90;;;;;;5105835;28;19983;-73
2023/06/23 07:36:30;;;;;;;;;;;17.80;99.90;;;;;;5105328;28;19920;-74
2023/06/23 07:38:57;;;;;;;;;;;17.80;99.90;;;;;;5117974;28;19958;-72
2023/06/23 07:41:24;;;;;;;;;;;17.70;99.90;;;;;;5124986;28;19920;-75
2023/06/23 07:43:52;;;;;;;;;;;17.80;99.90;;;;;;5125801;28;19982;-73
2023/06/23 07:46:18;;;;;;;;;;;17.70;99.90;;;;;;5125506;28;19920;-73
2023/06/23 07:48:45;;;;;;;;;;;17.80;99.90;;;;;;5125339;28;20226;-72
2023/06/23 07:51:12;;;;;;;;;;;17.80;99.90;;;;;;5124982;28;19920;-72
2023/06/23 07:53:38;;;;;;;;;;;17.70;99.90;;;;;;5110792;28;20167;-73
2023/06/23 07:56:05;;;;;;;;;;;17.70;99.90;;;;;;5120971;28;19955;-72
2023/06/23 07:58:32;;;;;;;;;;;17.70;99.90;;;;;;5120695;28;19920;-73
2023/06/23 08:00:59;;;;;;;;;;;17.70;99.90;;;;;;5103965;28;19971;-73
2023/06/23 08:03:26;;;;;;;;;;;17.80;99.90;;;;;;5104890;28;19926;-73
2023/06/23 08:06:02;;;;;;;;;;;17.80;99.90;;;;;;5102397;28;20078;-73
2023/06/23 08:08:28;;;;;;;;;;;17.90;99.90;;;;;;5104682;28;19988;-73
2023/06/23 08:10:55;;;;;;;;;;;17.90;99.90;;;;;;5104239;28;19979;-71
2023/06/23 08:13:22;;;;;;;;;;;17.80;99.90;;;;;;5104616;28;19983;-72
2023/06/23 08:15:49;;;;;;;;;;;17.80;99.90;;;;;;5102867;28;19955;-72
2023/06/23 08:18:17;;;;;;;;;;;17.80;99.90;;;;;;5104685;28;19991;-72
2023/06/23 08:20:44;;;;;;;;;;;17.80;99.90;;;;;;5120261;28;19927;-74
2023/06/23 08:23:10;;;;;;;;;;;17.80;99.90;;;;;;5125497;28;19955;-72
2023/06/23 08:25:37;;;;;;;;;;;17.80;99.90;;;;;;5124798;28;20188;-72
2023/06/23 08:28:04;;;;;;;;;;;17.90;99.90;;;;;;5124726;28;19920;-71
2023/06/23 08:30:31;;;;;;;;;;;17.90;99.90;;;;;;5124109;28;20171;-71
2023/06/23 08:32:58;;;;;;;;;;;17.90;99.90;;;;;;5124725;28;19919;-72
2023/06/23 08:35:45;;;;;;;;;;;17.90;99.90;;;;;;5121346;28;19965;-77
2023/06/23 08:38:13;;;;;;;;;;;17.80;99.90;;;;;;5104906;28;19941;-73
2023/06/23 08:40:41;;;;;;;;;;;17.90;99.90;;;;;;5123811;28;19932;-72
2023/06/23 08:43:08;;;;;;;;;;;18.00;99.90;;;;;;5125098;28;19919;-72
2023/06/23 08:45:36;;;;;;;;;;;18.10;99.90;;;;;;5124648;28;19920;-72
2023/06/23 08:48:03;;;;;;;;;;;18.10;99.90;;;;;;5124538;28;19974;-71
2023/06/23 08:50:34;;;;;;;;;;;18.20;99.90;;;;;;5121316;28;19947;-72
2023/06/23 08:53:36;;;;;;;;;;;18.30;99.90;;;;;;5116383;28;19989;-74
2023/06/23 08:56:03;;;;;;;;;;;18.50;99.90;;;;;;5099499;28;19920;-72
2023/06/23 09:01:16;;;;;;;;;;;18.80;99.90;;;;;;5097708;28;19916;-70
2023/06/23 09:03:58;;;;;;;;;;;18.50;99.90;;;;;;5106996;28;20262;-72
2023/06/23 09:06:26;;;;;;;;;;;18.50;99.90;;;;;;5106273;28;19920;-70
2023/06/23 09:12:00;;;;;;;;;;;18.40;99.90;;;;;;5079467;28;19926;-71
2023/06/23 09:14:29;;;;;;;;;;;18.20;99.90;;;;;;5104139;28;19991;-71
2023/06/23 09:16:56;;;;;;;;;;;18.20;99.90;;;;;;5103320;28;19920;-72
2023/06/23 09:19:23;;;;;;;;;;;18.10;99.90;;;;;;5101048;28;20208;-72
2023/06/23 09:30:44;;;;;;;;;;;18.40;99.90;;;;;;5046599;28;19921;-72
2023/06/23 09:33:11;;;;;;;;;;;18.50;99.90;;;;;;5103758;28;19927;-72
2023/06/23 09:35:37;;;;;;;;;;;18.50;99.90;;;;;;5103915;28;19979;-71
2023/06/23 09:38:05;;;;;;;;;;;18.50;99.90;;;;;;5103648;28;19920;-72
2023/06/23 09:40:33;;;;;;;;;;;18.50;99.90;;;;;;5103171;28;19920;-72
2023/06/23 09:42:59;;;;;;;;;;;18.60;99.90;;;;;;5103277;28;19988;-72
2023/06/23 09:45:26;;;;;;;;;;;18.60;99.90;;;;;;5103034;28;19963;-71
2023/06/23 09:47:53;;;;;;;;;;;18.70;99.90;;;;;;5102962;28;19973;-72
2023/06/23 09:50:22;;;;;;;;;;;18.80;99.90;;;;;;5102862;28;19928;-72
2023/06/23 09:52:59;;;;;;;;;;;18.80;99.90;;;;;;5107039;28;19935;-72
2023/06/23 09:55:29;;;;;;;;;;;18.90;99.90;;;;;;5107147;28;19926;-71
2023/06/23 09:57:56;;;;;;;;;;;19.10;99.90;;;;;;5125602;28;19919;-71
2023/06/23 10:00:29;;;;;;;;;;;19.10;99.90;;;;;;5106896;28;19935;-71
2023/06/23 10:02:57;;;;;;;;;;;19.10;99.90;;;;;;5114912;28;19920;-71
2023/06/23 10:05:24;;;;;;;;;;;19.00;99.90;;;;;;5127561;28;19926;-71
2023/06/23 10:08:05;;;;;;;;;;;19.10;99.90;;;;;;5127216;28;19927;-70
2023/06/23 10:10:33;;;;;;;;;;;19.10;99.90;;;;;;5122245;28;19920;-70
2023/06/23 10:12:59;;;;;;;;;;;19.00;99.90;;;;;;5107138;28;19920;-71
2023/06/23 10:15:28;;;;;;;;;;;18.90;99.90;;;;;;5104536;28;19920;-71
2023/06/23 10:17:56;;;;;;;;;;;18.80;99.90;;;;;;5107221;28;20204;-71
2023/06/23 10:20:22;;;;;;;;;;;18.80;99.90;;;;;;5106630;28;19928;-70
2023/06/23 10:22:49;;;;;;;;;;;18.70;99.90;;;;;;5106846;28;19979;-70
2023/06/23 10:25:16;;;;;;;;;;;18.70;99.90;;;;;;5106451;28;20337;-70
2023/06/23 10:27:44;;;;;;;;;;;18.80;99.90;;;;;;5106193;28;20250;-70
2023/06/23 10:30:13;;;;;;;;;;;18.80;99.90;;;;;;5106342;28;20300;-71
2023/06/23 10:32:42;;;;;;;;;;;18.90;99.90;;;;;;5106649;28;19920;-70
2023/06/23 10:35:10;;;;;;;;;;;18.90;99.90;;;;;;5112273;28;19927;-70
2023/06/23 10:37:38;;;;;;;;;;;19.00;99.90;;;;;;5127392;28;19983;-70
2023/06/23 10:40:06;;;;;;;;;;;19.00;99.90;;;;;;5110164;28;19979;-71
2023/06/23 10:42:34;;;;;;;;;;;19.00;99.90;;;;;;5124211;28;19982;-73
2023/06/23 10:45:03;;;;;;;;;;;18.90;99.90;;;;;;5117515;28;20208;-71
2023/06/23 10:47:30;;;;;;;;;;;18.90;99.90;;;;;;5119576;28;19987;-71
2023/06/23 10:49:58;;;;;;;;;;;18.80;99.90;;;;;;5105374;28;19927;-70
2023/06/23 10:52:26;;;;;;;;;;;18.90;99.90;;;;;;5106195;28;19927;-70
2023/06/23 10:54:53;;;;;;;;;;;18.80;99.90;;;;;;5106276;28;19920;-71
2023/06/23 10:57:19;;;;;;;;;;;18.80;99.90;;;;;;5118407;28;19972;-71
2023/06/23 10:59:59;;;;;;;;;;;18.80;99.90;;;;;;5110847;28;19959;-71
2023/06/23 11:02:29;;;;;;;;;;;18.80;99.90;;;;;;5105286;28;19920;-71
2023/06/23 11:04:57;;;;;;;;;;;18.80;99.90;;;;;;5106183;28;19924;-71
2023/06/23 11:07:24;;;;;;;;;;;18.80;99.90;;;;;;5106125;28;19920;-71
2023/06/23 11:10:03;;;;;;;;;;;18.80;99.90;;;;;;5121188;28;19927;-71
2023/06/23 11:12:30;;;;;;;;;;;18.80;99.90;;;;;;5123351;28;20092;-72
2023/06/23 11:15:01;;;;;;;;;;;18.80;99.90;;;;;;5106070;28;19962;-70
2023/06/23 11:17:29;;;;;;;;;;;18.80;99.90;;;;;;5108098;28;19955;-71
2023/06/23 11:19:55;;;;;;;;;;;18.80;99.90;;;;;;5126191;28;19926;-71
2023/06/23 11:22:22;;;;;;;;;;;18.80;99.90;;;;;;5126035;28;20016;-71
2023/06/23 11:24:52;;;;;;;;;;;18.80;99.90;;;;;;5126227;28;20007;-70
2023/06/23 11:27:19;;;;;;;;;;;18.80;99.90;;;;;;5126325;28;19942;-71
2023/06/23 11:30:00;;;;;;;;;;;18.80;99.90;;;;;;5126191;28;19951;-71
2023/06/23 11:32:28;;;;;;;;;;;18.80;99.90;;;;;;5125742;28;19920;-71
2023/06/23 11:35:12;;;;;;;;;;;18.90;99.90;;;;;;5126372;28;19930;-74
2023/06/23 11:37:39;;;;;;;;;;;18.90;99.90;;;;;;5126285;28;20101;-71
2023/06/23 11:40:08;;;;;;;;;;;19.00;99.90;;;;;;5112388;28;19920;-71
2023/06/23 11:42:35;;;;;;;;;;;19.00;99.90;;;;;;5105622;28;19920;-71
2023/06/23 11:45:05;;;;;;;;;;;19.00;99.90;;;;;;5102955;28;19987;-72
2023/06/23 11:47:33;;;;;;;;;;;18.90;99.90;;;;;;5104920;28;19920;-72
2023/06/23 11:50:02;;;;;;;;;;;19.00;99.90;;;;;;5103432;28;19994;-73
2023/06/23 11:52:29;;;;;;;;;;;19.00;99.90;;;;;;5104826;28;20207;-72
2023/06/23 11:54:58;;;;;;;;;;;18.90;99.90;;;;;;5104943;28;19920;-72
2023/06/23 11:57:25;;;;;;;;;;;19.00;99.90;;;;;;5104269;28;20426;-74
2023/06/23 11:59:52;;;;;;;;;;;19.00;99.90;;;;;;5121237;28;19986;-73
2023/06/23 12:05:10;;;;;;;;;;;19.10;99.90;;;;;;5097636;27;19919;-71
2023/06/23 12:07:40;;;;;;;;;;;19.10;99.90;;;;;;5125685;28;19989;-72
2023/06/23 12:10:10;;;;;;;;;;;19.10;99.90;;;;;;5125264;28;19927;-71
2023/06/23 12:12:36;;;;;;;;;;;19.00;99.90;;;;;;5125391;28;20003;-71
2023/06/23 12:15:03;;;;;;;;;;;19.00;99.90;;;;;;5124716;28;19999;-72
2023/06/23 12:17:30;;;;;;;;;;;19.00;99.90;;;;;;5120492;28;19920;-75
2023/06/23 12:22:43;;;;;;;;;;;19.00;99.90;;;;;;5124475;28;19955;-73
2023/06/23 12:25:10;;;;;;;;;;;19.10;99.90;;;;;;5146996;22;19920;-70
2023/06/23 12:27:37;;;;;;;;;;;19.10;99.90;;;;;;5104494;28;19996;-70
2023/06/23 12:30:16;;;;;;;;;;;19.10;99.90;;;;;;5104010;28;19991;-71
2023/06/23 12:32:42;;;;;;;;;;;19.20;99.90;;;;;;5103974;28;19927;-70
2023/06/23 12:35:09;;;;;;;;;;;19.30;99.90;;;;;;5104340;28;19987;-70
2023/06/23 12:37:45;;;;;;;;;;;19.30;99.90;;;;;;5104267;28;19995;-70
2023/06/23 12:40:28;;;;;;;;;;;19.40;99.90;;;;;;5089828;28;19921;-71
2023/06/23 12:42:55;;;;;;;;;;;19.40;99.90;;;;;;5083950;28;19983;-69
2023/06/23 12:45:24;;;;;;;;;;;19.40;99.90;;;;;;5087457;28;19954;-69
2023/06/23 12:47:51;;;;;;;;;;;19.40;99.90;;;;;;5112572;28;19969;-72
2023/06/23 12:50:25;;;;;;;;;;;19.30;99.90;;;;;;5121667;28;19920;-70
2023/06/23 12:52:53;;;;;;;;;;;19.30;99.90;;;;;;5104096;28;19996;-70
2023/06/23 12:55:22;;;;;;;;;;;19.30;99.90;;;;;;5101321;28;19934;-70
2023/06/23 12:57:49;;;;;;;;;;;19.20;99.90;;;;;;5104022;28;19920;-70
2023/06/23 13:00:17;;;;;;;;;;;19.20;99.90;;;;;;5103312;28;19927;-70
2023/06/23 13:02:44;;;;;;;;;;;19.10;99.90;;;;;;5103715;28;19942;-70
2023/06/23 13:05:10;;;;;;;;;;;19.00;99.90;;;;;;5103546;28;20266;-70
2023/06/23 13:07:37;;;;;;;;;;;19.00;99.90;;;;;;5103940;28;19951;-70
2023/06/23 13:10:06;;;;;;;;;;;18.90;99.90;;;;;;5103396;28;19927;-69
2023/06/23 13:12:33;;;;;;;;;;;18.90;99.90;;;;;;5103691;28;19991;-70
2023/06/23 13:15:00;;;;;;;;;;;18.90;99.90;;;;;;5103392;28;19994;-70
2023/06/23 13:17:27;;;;;;;;;;;18.90;99.90;;;;;;5103807;28;20335;-70
2023/06/23 13:19:53;;;;;;;;;;;18.90;99.90;;;;;;5103760;28;19955;-70
2023/06/23 13:22:20;;;;;;;;;;;18.90;99.90;;;;;;5103019;28;19946;-74
2023/06/23 13:24:46;;;;;;;;;;;18.90;99.90;;;;;;5103214;28;20230;-70
2023/06/23 13:27:15;;;;;;;;;;;18.90;99.90;;;;;;5103127;28;19991;-69
2023/06/23 13:29:42;;;;;;;;;;;19.00;99.90;;;;;;5103338;28;20227;-71
2023/06/23 13:32:09;;;;;;;;;;;19.00;99.90;;;;;;5102591;28;19940;-69
2023/06/23 13:34:36;;;;;;;;;;;19.10;99.90;;;;;;5103373;28;19986;-69
2023/06/23 13:37:02;;;;;;;;;;;19.30;99.90;;;;;;5100146;28;20089;-70
2023/06/23 13:39:29;;;;;;;;;;;19.40;99.90;;;;;;5098435;28;19921;-69
2023/06/23 13:41:56;;;;;;;;;;;19.50;99.90;;;;;;5092853;28;20110;-69
2023/06/23 13:44:25;;;;;;;;;;;19.50;99.90;;;;;;5103411;28;19987;-70
2023/06/23 13:46:52;;;;;;;;;;;19.50;99.90;;;;;;5103110;28;19920;-70
2023/06/23 13:49:18;;;;;;;;;;;19.40;99.90;;;;;;5099330;28;19987;-69
2023/06/23 13:51:45;;;;;;;;;;;19.40;99.90;;;;;;5102630;28;19991;-71
2023/06/23 13:54:12;;;;;;;;;;;19.30;99.90;;;;;;5097332;28;20175;-70
2023/06/23 13:56:38;;;;;;;;;;;19.30;99.90;;;;;;5097160;28;19920;-70
2023/06/23 13:59:05;;;;;;;;;;;19.20;99.90;;;;;;5103367;28;19955;-69
2023/06/23 14:01:33;;;;;;;;;;;19.20;99.90;;;;;;5102433;28;20118;-71
2023/06/23 14:03:59;;;;;;;;;;;19.20;99.90;;;;;;5102714;28;19951;-69
2023/06/23 14:06:26;;;;;;;;;;;19.20;99.90;;;;;;5102794;28;19992;-68
2023/06/23 14:08:54;;;;;;;;;;;19.20;99.90;;;;;;5101754;28;19927;-69
2023/06/23 14:11:21;;;;;;;;;;;19.10;99.90;;;;;;5101156;28;19927;-69
2023/06/23 14:13:48;;;;;;;;;;;19.10;99.90;;;;;;5103027;28;19926;-69
2023/06/23 14:16:16;;;;;;;;;;;19.00;99.90;;;;;;5099779;28;19984;-70
2023/06/23 14:18:44;;;;;;;;;;;19.00;99.90;;;;;;5103408;28;19920;-69
2023/06/23 14:21:12;;;;;;;;;;;19.00;99.90;;;;;;5102009;28;19920;-69
2023/06/23 14:23:38;;;;;;;;;;;19.40;99.90;;;;;;5103190;28;19920;-68
2023/06/23 14:26:05;;;;;;;;;;;19.60;99.90;;;;;;5094098;28;19979;-69
2023/06/23 14:28:31;;;;;;;;;;;19.80;99.90;;;;;;5089123;28;19952;-69
2023/06/23 14:30:58;;;;;;;;;;;19.90;99.90;;;;;;5081826;28;19996;-69
2023/06/23 14:33:25;;;;;;;;;;;19.90;99.90;;;;;;5082628;28;19955;-69
2023/06/23 14:35:53;;;;;;;;;;;19.80;99.90;;;;;;5082541;28;19983;-69
2023/06/23 14:38:20;;;;;;;;;;;19.90;99.90;;;;;;5099582;28;19983;-69
2023/06/23 14:40:46;;;;;;;;;;;19.80;99.90;;;;;;5105892;28;19991;-69
2023/06/23 14:43:13;;;;;;;;;;;19.80;99.90;;;;;;5106545;28;20227;-69
2023/06/23 14:45:41;;;;;;;;;;;19.90;99.90;;;;;;5106073;28;19920;-69
2023/06/23 14:48:08;;;;;;;;;;;20.00;99.90;;;;;;5104550;28;20017;-69
2023/06/23 14:50:35;;;;;;;;;;;20.10;99.90;;;;;;5105574;28;19955;-69
2023/06/23 14:53:03;;;;;;;;;;;20.20;99.90;;;;;;5106338;28;19955;-69
2023/06/23 14:55:32;;;;;;;;;;;20.30;99.90;;;;;;5105884;28;19927;-69